createdAt,value
2023-01-25T00:00:23.157Z,97807.81
2023-01-25T00:02:49.724Z,97809.59
2023-01-25T00:05:16.243Z,97804.72
2023-01-25T00:07:42.744Z,97801.38
2023-01-25T00:10:10.050Z,97795.44
2023-01-25T00:12:36.644Z,97793.78
2023-01-25T00:17:43.912Z,97783.59
2023-01-25T00:20:10.885Z,97792.81
2023-01-25T00:22:38.000Z,97784.38
2023-01-25T00:25:05.090Z,97797.72
2023-01-25T00:27:34.579Z,97794.31
2023-01-25T00:30:03.400Z,97800.97
2023-01-25T00:32:47.324Z,97799.63
2023-01-25T00:35:15.092Z,97797.50
2023-01-25T00:37:49.947Z,97790.09
2023-01-25T00:40:19.575Z,97791.47
2023-01-25T00:42:46.591Z,97773.69
2023-01-25T00:45:13.425Z,97772.72
2023-01-25T00:47:40.268Z,97766.91
2023-01-25T00:50:08.706Z,97765.34
2023-01-25T00:52:35.329Z,97773.31
2023-01-25T00:55:02.024Z,97767.81
2023-01-25T00:57:28.627Z,97755.16
2023-01-25T00:59:55.307Z,97749.38
2023-01-25T01:02:21.976Z,97748.44
2023-01-25T01:04:48.577Z,97740.72
2023-01-25T01:07:15.500Z,97745.91
2023-01-25T01:09:42.045Z,97746.59
2023-01-25T01:12:09.241Z,97738.00
2023-01-25T01:14:35.945Z,97735.56
2023-01-25T01:17:02.488Z,97737.94
2023-01-25T01:19:29.013Z,97735.34
2023-01-25T01:21:55.588Z,97735.16
2023-01-25T01:24:22.103Z,97726.81
2023-01-25T01:26:48.620Z,97734.47
2023-01-25T01:29:15.107Z,97734.31
2023-01-25T01:31:42.249Z,97750.63
2023-01-25T01:34:19.425Z,97759.16
2023-01-25T01:37:04.687Z,97761.47
2023-01-25T01:39:31.205Z,97763.72
2023-01-25T01:41:57.710Z,97764.28
2023-01-25T01:44:46.081Z,97773.13
2023-01-25T01:47:18.801Z,97777.38
2023-01-25T01:49:52.310Z,97770.66
2023-01-25T01:52:22.957Z,97762.47
2023-01-25T01:55:03.114Z,97760.78
2023-01-25T01:57:46.559Z,97752.41
2023-01-25T02:00:18.400Z,97747.94
2023-01-25T02:02:46.276Z,97745.06
2023-01-25T02:05:20.663Z,97746.53
2023-01-25T02:07:50.870Z,97735.66
2023-01-25T02:10:18.129Z,97733.78
2023-01-25T02:12:45.799Z,97742.03
2023-01-25T02:15:12.513Z,97749.69
2023-01-25T02:17:40.330Z,97751.72
2023-01-25T02:20:25.379Z,97743.97
2023-01-25T02:23:14.229Z,97740.41
2023-01-25T02:25:41.333Z,97736.09
2023-01-25T02:28:29.290Z,97743.47
2023-01-25T02:30:55.941Z,97740.63
2023-01-25T02:33:26.854Z,97741.16
2023-01-25T02:36:12.513Z,97738.25
2023-01-25T02:38:43.107Z,97743.84
2023-01-25T02:41:24.731Z,97742.34
2023-01-25T02:43:51.974Z,97735.66
2023-01-25T02:46:25.945Z,97732.59
2023-01-25T02:48:53.116Z,97728.47
2023-01-25T02:51:20.660Z,97731.47
2023-01-25T02:53:47.405Z,97726.72
2023-01-25T02:56:13.985Z,97721.41
2023-01-25T02:58:40.764Z,97713.22
2023-01-25T03:01:11.256Z,97707.22
2023-01-25T03:03:37.910Z,97706.19
2023-01-25T03:06:04.868Z,97707.81
2023-01-25T03:08:31.437Z,97702.94
2023-01-25T03:10:59.853Z,97700.66
2023-01-25T03:13:27.134Z,97701.50
2023-01-25T03:15:59.790Z,97694.09
2023-01-25T03:18:26.694Z,97698.50
2023-01-25T03:20:53.177Z,97696.22
2023-01-25T03:23:22.408Z,97689.50
2023-01-25T03:25:48.900Z,97689.38
2023-01-25T03:28:15.431Z,97688.69
2023-01-25T03:30:42.163Z,97682.91
2023-01-25T03:33:09.432Z,97690.06
2023-01-25T03:35:39.379Z,97681.53
2023-01-25T03:38:05.877Z,97678.91
2023-01-25T03:40:32.416Z,97677.94
2023-01-25T03:42:58.885Z,97673.59
2023-01-25T03:45:25.389Z,97664.91
2023-01-25T03:48:13.901Z,97663.69
2023-01-25T03:50:40.422Z,97660.19
2023-01-25T03:53:13.344Z,97668.56
2023-01-25T03:55:39.880Z,97659.91
2023-01-25T03:58:06.392Z,97651.44
2023-01-25T04:00:32.930Z,97641.91
2023-01-25T04:02:59.387Z,97647.31
2023-01-25T04:05:25.877Z,97648.78
2023-01-25T04:07:52.404Z,97649.75
2023-01-25T04:10:19.035Z,97651.78
2023-01-25T04:12:45.486Z,97653.91
2023-01-25T04:15:12.009Z,97658.22
2023-01-25T04:17:39.130Z,97650.78
2023-01-25T04:20:06.352Z,97653.22
2023-01-25T04:22:32.889Z,97644.75
2023-01-25T04:24:59.412Z,97663.84
2023-01-25T04:27:25.965Z,97662.06
2023-01-25T04:29:52.465Z,97659.31
2023-01-25T04:32:19.240Z,97661.75
2023-01-25T04:34:49.017Z,97661.03
2023-01-25T04:37:15.457Z,97662.97
2023-01-25T04:39:41.888Z,97664.97
2023-01-25T04:42:09.040Z,97659.97
2023-01-25T04:44:36.206Z,97662.25
2023-01-25T04:47:03.697Z,97649.97
2023-01-25T04:49:30.416Z,97654.22
2023-01-25T04:51:56.871Z,97661.88
2023-01-25T04:54:23.438Z,97660.25
2023-01-25T04:56:50.028Z,97660.28
2023-01-25T04:59:16.546Z,97660.31
2023-01-25T05:01:43.065Z,97658.00
2023-01-25T05:04:09.705Z,97654.56
2023-01-25T05:06:36.158Z,97672.16
2023-01-25T05:09:03.523Z,97670.50
2023-01-25T05:11:30.059Z,97673.75
2023-01-25T05:13:56.545Z,97663.88
2023-01-25T05:16:23.164Z,97659.59
2023-01-25T05:18:50.032Z,97658.00
2023-01-25T05:21:35.181Z,97643.78
2023-01-25T05:24:02.588Z,97634.50
2023-01-25T05:26:48.004Z,97633.09
2023-01-25T05:29:14.655Z,97637.97
2023-01-25T05:31:41.215Z,97630.50
2023-01-25T05:34:09.229Z,97625.44
2023-01-25T05:36:35.763Z,97631.41
2023-01-25T05:39:02.225Z,97624.84
2023-01-25T05:41:30.780Z,97632.28
2023-01-25T05:43:57.251Z,97627.97
2023-01-25T05:46:23.809Z,97624.28
2023-01-25T05:48:50.577Z,97631.09
2023-01-25T05:51:17.261Z,97629.53
2023-01-25T05:53:43.762Z,97617.66
2023-01-25T05:56:10.831Z,97628.44
2023-01-25T05:58:42.851Z,97628.66
2023-01-25T06:01:09.446Z,97622.91
2023-01-25T06:03:37.907Z,97617.06
2023-01-25T06:06:04.768Z,97613.59
2023-01-25T06:08:31.629Z,97618.63
2023-01-25T06:10:58.322Z,97613.25
2023-01-25T06:13:25.998Z,97608.28
2023-01-25T06:15:56.884Z,97606.38
2023-01-25T06:18:28.066Z,97608.91
2023-01-25T06:21:01.660Z,97600.13
2023-01-25T06:23:28.782Z,97603.97
2023-01-25T06:26:02.854Z,97609.44
2023-01-25T06:28:33.751Z,97608.53
2023-01-25T06:31:09.155Z,97601.72
2023-01-25T06:33:36.027Z,97602.56
2023-01-25T06:36:05.607Z,97610.91
2023-01-25T06:38:33.008Z,97613.28
2023-01-25T06:41:03.365Z,97613.94
2023-01-25T06:43:30.671Z,97602.81
2023-01-25T06:46:09.147Z,97613.50
2023-01-25T06:48:35.975Z,97604.88
2023-01-25T06:51:22.554Z,97612.06
2023-01-25T06:53:49.022Z,97603.69
2023-01-25T06:56:18.391Z,97615.25
2023-01-25T06:58:45.709Z,97607.91
2023-01-25T07:01:15.449Z,97618.19
2023-01-25T07:03:43.161Z,97629.09
2023-01-25T07:06:11.438Z,97622.69
2023-01-25T07:08:38.821Z,97626.88
2023-01-25T07:11:09.445Z,97624.38
2023-01-25T07:13:36.528Z,97633.69
2023-01-25T07:16:05.882Z,97636.28
2023-01-25T07:18:33.177Z,97635.41
2023-01-25T07:21:05.328Z,97628.56
2023-01-25T07:23:32.869Z,97631.81
2023-01-25T07:26:02.425Z,97641.81
2023-01-25T07:28:28.974Z,97626.00
2023-01-25T07:30:55.488Z,97634.63
2023-01-25T07:33:21.959Z,97643.44
2023-01-25T07:35:50.994Z,97638.28
2023-01-25T07:38:17.782Z,97635.38
2023-01-25T07:40:44.340Z,97635.59
2023-01-25T07:43:10.924Z,97636.56
2023-01-25T07:45:38.147Z,97636.91
2023-01-25T07:48:12.121Z,97633.81
2023-01-25T07:50:39.769Z,97632.19
2023-01-25T07:53:06.322Z,97630.44
2023-01-25T07:55:33.318Z,97619.66
2023-01-25T07:58:00.571Z,97623.91
2023-01-25T08:00:27.364Z,97620.63
2023-01-25T08:02:53.962Z,97615.22
2023-01-25T08:05:20.645Z,97621.03
2023-01-25T08:07:48.212Z,97612.34
2023-01-25T08:10:15.456Z,97609.19
2023-01-25T08:12:46.254Z,97613.38
2023-01-25T08:15:14.233Z,97604.03
2023-01-25T08:17:40.836Z,97604.88
2023-01-25T08:20:09.178Z,97597.59
2023-01-25T08:22:35.826Z,97596.47
2023-01-25T08:25:03.471Z,97593.47
2023-01-25T08:27:29.992Z,97595.03
2023-01-25T08:29:56.474Z,97591.94
2023-01-25T08:32:26.796Z,97593.25
2023-01-25T08:34:53.284Z,97589.53
2023-01-25T08:37:20.080Z,97584.44
2023-01-25T08:39:46.633Z,97585.09
2023-01-25T08:42:13.158Z,97587.41
2023-01-25T08:44:39.633Z,97585.03
2023-01-25T08:47:06.212Z,97593.41
2023-01-25T08:49:34.534Z,97584.69
2023-01-25T08:52:01.434Z,97581.94
2023-01-25T08:54:28.035Z,97566.34
2023-01-25T08:56:54.703Z,97571.94
2023-01-25T08:59:21.156Z,97564.75
2023-01-25T09:01:47.737Z,97566.72
2023-01-25T09:04:14.232Z,97556.09
2023-01-25T09:06:40.692Z,97556.97
2023-01-25T09:09:08.820Z,97560.69
2023-01-25T09:11:38.017Z,97547.59
2023-01-25T09:14:05.425Z,97550.38
2023-01-25T09:16:32.186Z,97545.28
2023-01-25T09:19:02.090Z,97534.66
2023-01-25T09:21:29.542Z,97541.19
2023-01-25T09:24:11.464Z,97537.63
2023-01-25T09:26:40.866Z,97533.19
2023-01-25T09:29:10.839Z,97523.28
2023-01-25T09:31:43.922Z,97525.44
2023-01-25T09:34:12.309Z,97521.88
2023-01-25T09:36:39.710Z,97525.97
2023-01-25T09:39:06.320Z,97524.75
2023-01-25T09:42:00.692Z,97530.25
2023-01-25T09:45:09.032Z,97530.09
2023-01-25T09:47:42.083Z,97527.69
2023-01-25T09:50:25.464Z,97512.22
2023-01-25T09:53:11.819Z,97509.84
2023-01-25T09:55:39.468Z,97510.28
2023-01-25T09:58:14.463Z,97503.31
2023-01-25T10:00:48.740Z,97503.56
2023-01-25T10:03:39.268Z,97514.38
2023-01-25T10:06:06.751Z,97493.84
2023-01-25T10:08:40.331Z,97502.50
2023-01-25T10:11:18.831Z,97487.81
2023-01-25T10:13:45.375Z,97491.47
2023-01-25T10:16:25.840Z,97492.59
2023-01-25T10:19:19.255Z,97493.59
2023-01-25T10:21:53.112Z,97488.41
2023-01-25T10:24:54.825Z,97485.66
2023-01-25T10:27:27.321Z,97486.09
2023-01-25T10:29:57.926Z,97486.03
2023-01-25T10:32:32.551Z,97480.94
2023-01-25T10:35:22.721Z,97474.66
2023-01-25T10:37:59.893Z,97470.63
2023-01-25T10:40:27.477Z,97478.38
2023-01-25T10:43:03.435Z,97467.13
2023-01-25T10:45:30.244Z,97471.59
2023-01-25T10:48:05.199Z,97453.78
2023-01-25T10:50:47.184Z,97454.13
2023-01-25T10:53:22.799Z,97450.47
2023-01-25T10:56:00.723Z,97434.00
2023-01-25T10:58:31.250Z,97434.81
2023-01-25T11:00:58.047Z,97434.53
2023-01-25T11:03:34.731Z,97420.03
2023-01-25T11:06:02.338Z,97427.59
2023-01-25T11:08:31.533Z,97416.91
2023-01-25T11:10:59.316Z,97421.41
2023-01-25T11:13:28.820Z,97414.53
2023-01-25T11:16:16.365Z,97418.19
2023-01-25T11:19:04.114Z,97422.81
2023-01-25T11:21:33.360Z,97418.88
2023-01-25T11:24:25.974Z,97414.22
2023-01-25T11:27:12.402Z,97424.88
2023-01-25T11:29:39.611Z,97420.34
2023-01-25T11:32:22.680Z,97422.59
2023-01-25T11:34:50.967Z,97410.59
2023-01-25T11:37:32.541Z,97417.03
2023-01-25T11:40:22.453Z,97409.78
2023-01-25T11:43:21.499Z,97407.75
2023-01-25T11:45:55.397Z,97401.03
2023-01-25T11:48:39.541Z,97397.78
2023-01-25T11:51:14.753Z,97391.59
2023-01-25T11:53:53.436Z,97396.41
2023-01-25T11:56:25.727Z,97402.22
2023-01-25T11:59:04.331Z,97393.97
2023-01-25T12:01:49.614Z,97375.09
2023-01-25T12:04:35.268Z,97378.50
2023-01-25T12:07:19.758Z,97368.19
2023-01-25T12:09:48.991Z,97373.16
2023-01-25T12:12:24.409Z,97377.13
2023-01-25T12:15:15.295Z,97375.69
2023-01-25T12:18:05.368Z,97372.28
2023-01-25T12:21:06.369Z,97361.78
2023-01-25T12:23:57.592Z,97357.00
2023-01-25T12:26:44.342Z,97345.50
2023-01-25T12:29:25.000Z,97349.25
2023-01-25T12:31:58.621Z,97347.19
2023-01-25T12:34:36.227Z,97337.88
2023-01-25T12:37:14.863Z,97335.81
2023-01-25T12:39:45.127Z,97336.91
2023-01-25T12:42:26.365Z,97335.22
2023-01-25T12:44:59.658Z,97336.50
2023-01-25T12:47:43.726Z,97332.84
2023-01-25T12:50:19.389Z,97328.63
2023-01-25T12:53:13.563Z,97337.81
2023-01-25T12:55:40.775Z,97332.38
2023-01-25T12:58:26.443Z,97332.66
2023-01-25T13:01:31.887Z,97328.06
2023-01-25T13:04:10.482Z,97317.94
2023-01-25T13:06:39.686Z,97315.94
2023-01-25T13:09:45.736Z,97321.88
2023-01-25T13:12:12.829Z,97318.38
2023-01-25T13:14:40.802Z,97311.75
2023-01-25T13:17:11.376Z,97316.97
2023-01-25T13:19:38.139Z,97317.78
2023-01-25T13:22:05.318Z,97312.94
2023-01-25T13:24:34.876Z,97310.22
2023-01-25T13:27:04.315Z,97309.66
2023-01-25T13:29:47.117Z,97313.66
2023-01-25T13:32:25.872Z,97316.16
2023-01-25T13:34:53.490Z,97300.06
2023-01-25T13:37:25.935Z,97300.88
2023-01-25T13:39:58.211Z,97305.50
2023-01-25T13:42:34.381Z,97298.22
2023-01-25T13:45:18.638Z,97302.97
2023-01-25T13:48:19.640Z,97295.81
2023-01-25T13:50:50.328Z,97293.81
2023-01-25T13:53:16.768Z,97285.16
2023-01-25T13:55:46.644Z,97284.81
2023-01-25T13:58:34.146Z,97287.38
2023-01-25T14:01:07.140Z,97289.41
2023-01-25T14:03:41.925Z,97285.69
2023-01-25T14:06:17.435Z,97290.41
2023-01-25T14:08:46.410Z,97287.66
2023-01-25T14:11:25.117Z,97287.66
2023-01-25T14:14:04.488Z,97282.06
2023-01-25T14:16:32.085Z,97283.84
2023-01-25T14:19:25.549Z,97276.66
2023-01-25T14:22:27.362Z,97276.00
2023-01-25T14:25:15.488Z,97267.41
2023-01-25T14:28:06.264Z,97275.06
2023-01-25T14:30:34.865Z,97263.63
2023-01-25T14:33:04.287Z,97262.88
2023-01-25T14:35:42.992Z,97263.94
2023-01-25T14:38:40.758Z,97257.03
2023-01-25T14:41:22.487Z,97265.38
2023-01-25T14:43:51.941Z,97260.28
2023-01-25T14:46:29.799Z,97257.50
2023-01-25T14:49:25.446Z,97256.34
2023-01-25T14:52:13.106Z,97255.13
2023-01-25T14:54:50.161Z,97255.59
2023-01-25T14:57:41.005Z,97251.34
2023-01-25T15:00:21.268Z,97254.13
2023-01-25T15:02:55.130Z,97252.91
2023-01-25T15:05:27.384Z,97249.00
2023-01-25T15:07:58.705Z,97248.13
2023-01-25T15:10:33.274Z,97239.75
2023-01-25T15:13:11.649Z,97239.59
2023-01-25T15:15:52.504Z,97240.50
2023-01-25T15:18:51.462Z,97228.41
2023-01-25T15:21:26.785Z,97233.44
2023-01-25T15:23:56.118Z,97222.91
2023-01-25T15:26:22.653Z,97221.41
2023-01-25T15:28:54.763Z,97212.16
2023-01-25T15:31:23.036Z,97216.75
2023-01-25T15:33:49.826Z,97213.59
2023-01-25T15:36:17.424Z,97204.16
2023-01-25T15:38:44.829Z,97205.63
2023-01-25T15:41:12.350Z,97202.91
2023-01-25T15:43:40.934Z,97205.44
2023-01-25T15:46:15.155Z,97200.06
2023-01-25T15:48:43.012Z,97196.75
2023-01-25T15:51:09.460Z,97208.22
2023-01-25T15:53:36.141Z,97198.19
2023-01-25T15:56:16.898Z,97199.84
2023-01-25T15:58:47.191Z,97193.78
2023-01-25T16:01:14.092Z,97194.63
2023-01-25T16:03:41.612Z,97191.75
2023-01-25T16:06:44.607Z,97186.66
2023-01-25T16:09:15.567Z,97185.75
2023-01-25T16:11:42.125Z,97181.41
2023-01-25T16:14:12.069Z,97183.16
2023-01-25T16:16:42.987Z,97185.03
2023-01-25T16:19:13.306Z,97174.03
2023-01-25T16:21:41.524Z,97184.78
2023-01-25T16:24:10.076Z,97186.63
2023-01-25T16:26:45.588Z,97185.41
2023-01-25T16:29:12.434Z,97182.78
2023-01-25T16:31:39.255Z,97178.47
2023-01-25T16:34:06.281Z,97174.16
2023-01-25T16:36:34.525Z,97179.84
2023-01-25T16:39:33.636Z,97176.09
2023-01-25T16:42:00.969Z,97173.59
2023-01-25T16:44:28.121Z,97181.53
2023-01-25T16:46:55.206Z,97180.56
2023-01-25T16:49:26.300Z,97180.84
2023-01-25T16:51:53.887Z,97183.66
2023-01-25T16:54:21.065Z,97180.78
2023-01-25T16:56:48.569Z,97179.75
2023-01-25T16:59:15.668Z,97182.25
2023-01-25T17:01:42.475Z,97180.91
2023-01-25T17:04:12.677Z,97180.66
2023-01-25T17:06:42.960Z,97173.59
2023-01-25T17:09:22.813Z,97173.28
2023-01-25T17:11:51.151Z,97168.78
2023-01-25T17:14:19.238Z,97171.84
2023-01-25T17:16:48.271Z,97167.56
2023-01-25T17:19:16.242Z,97159.91
2023-01-25T17:21:43.170Z,97168.75
2023-01-25T17:24:13.455Z,97156.78
2023-01-25T17:26:40.839Z,97161.91
2023-01-25T17:29:10.259Z,97152.97
2023-01-25T17:31:39.900Z,97158.16
2023-01-25T17:34:08.401Z,97150.06
2023-01-25T17:36:35.375Z,97145.44
2023-01-25T17:39:33.045Z,97145.28
2023-01-25T17:41:59.633Z,97142.50
2023-01-25T17:44:26.231Z,97139.00
2023-01-25T17:46:52.722Z,97139.19
2023-01-25T17:49:20.029Z,97132.22
2023-01-25T17:51:46.591Z,97135.31
2023-01-25T17:54:13.587Z,97130.22
2023-01-25T17:56:40.153Z,97129.06
2023-01-25T17:59:09.045Z,97118.09
2023-01-25T18:01:36.311Z,97113.63
2023-01-25T18:04:07.046Z,97114.28
2023-01-25T18:06:33.795Z,97105.03
2023-01-25T18:09:02.399Z,97102.44
2023-01-25T18:11:31.985Z,97108.84
2023-01-25T18:14:01.534Z,97101.09
2023-01-25T18:16:30.728Z,97096.25
2023-01-25T18:18:59.346Z,97100.81
2023-01-25T18:21:35.430Z,97095.38
2023-01-25T18:24:06.210Z,97089.59
2023-01-25T18:26:35.528Z,97084.69
2023-01-25T18:29:08.555Z,97079.19
2023-01-25T18:31:35.492Z,97067.44
2023-01-25T18:34:02.344Z,97066.81
2023-01-25T18:36:28.909Z,97067.03
2023-01-25T18:38:55.491Z,97063.41
2023-01-25T18:41:21.947Z,97064.50
2023-01-25T18:43:50.055Z,97058.56
2023-01-25T18:46:16.584Z,97053.28
2023-01-25T18:48:45.497Z,97051.41
2023-01-25T18:51:13.880Z,97044.06
2023-01-25T18:53:44.207Z,97049.81
2023-01-25T18:56:16.655Z,97039.00
2023-01-25T18:59:09.275Z,97033.91
2023-01-25T19:01:35.891Z,97037.94
2023-01-25T19:04:02.461Z,97039.84
2023-01-25T19:06:28.926Z,97043.81
2023-01-25T19:08:57.131Z,97040.44
2023-01-25T19:11:24.096Z,97027.91
2023-01-25T19:13:50.670Z,97029.38
2023-01-25T19:16:20.052Z,97024.84
2023-01-25T19:18:50.087Z,97014.69
2023-01-25T19:21:21.963Z,97009.94
2023-01-25T19:23:50.366Z,97014.31
2023-01-25T19:26:19.126Z,97014.84
2023-01-25T19:28:46.418Z,97010.53
2023-01-25T19:31:15.819Z,97002.50
2023-01-25T19:33:49.587Z,96998.22
2023-01-25T19:36:19.284Z,97007.19
2023-01-25T19:38:47.214Z,97003.56
2023-01-25T19:41:19.559Z,97001.81
2023-01-25T19:43:46.949Z,97005.44
2023-01-25T19:46:19.010Z,97004.56
2023-01-25T19:48:49.846Z,96998.34
2023-01-25T19:51:19.430Z,97009.75
2023-01-25T19:53:48.685Z,97002.78
2023-01-25T19:56:17.547Z,96998.97
2023-01-25T19:58:45.766Z,97007.75
2023-01-25T20:01:20.435Z,97010.38
2023-01-25T20:03:48.234Z,97012.88
2023-01-25T20:06:16.433Z,97005.75
2023-01-25T20:08:44.592Z,97008.09
2023-01-25T20:11:20.100Z,97012.19
2023-01-25T20:13:51.706Z,96999.72
2023-01-25T20:16:18.817Z,97004.31
2023-01-25T20:18:46.653Z,97000.28
2023-01-25T20:21:21.994Z,96990.53
2023-01-25T20:23:56.098Z,96993.94
2023-01-25T20:26:25.256Z,96995.97
2023-01-25T20:28:53.568Z,96996.78
2023-01-25T20:31:21.293Z,96989.50
2023-01-25T20:33:50.216Z,96996.50
2023-01-25T20:36:16.755Z,96998.81
2023-01-25T20:38:43.616Z,96990.75
2023-01-25T20:41:14.240Z,96993.25
2023-01-25T20:43:46.380Z,96989.50
2023-01-25T20:46:12.933Z,96995.44
2023-01-25T20:48:39.579Z,96989.97
2023-01-25T20:51:17.013Z,96991.19
2023-01-25T20:53:45.742Z,96983.25
2023-01-25T20:56:13.768Z,96989.72
2023-01-25T20:58:41.240Z,96980.34
2023-01-25T21:01:16.171Z,96985.91
2023-01-25T21:03:42.773Z,96983.31
2023-01-25T21:06:12.523Z,96983.66
2023-01-25T21:08:39.589Z,96976.84
2023-01-25T21:11:07.024Z,96981.16
2023-01-25T21:13:33.800Z,96976.94
2023-01-25T21:16:05.220Z,96973.94
2023-01-25T21:18:32.822Z,96968.34
2023-01-25T21:21:04.868Z,96962.47
2023-01-25T21:23:34.152Z,96969.22
2023-01-25T21:26:02.162Z,96965.84
2023-01-25T21:28:29.223Z,96980.09
2023-01-25T21:30:56.246Z,96969.78
2023-01-25T21:33:23.042Z,96957.09
2023-01-25T21:35:54.374Z,96964.22
2023-01-25T21:38:21.598Z,96968.38
2023-01-25T21:40:48.068Z,96958.81
2023-01-25T21:43:16.346Z,96967.59
2023-01-25T21:46:01.431Z,96967.53
2023-01-25T21:48:46.597Z,96959.44
2023-01-25T21:51:32.655Z,96962.81
2023-01-25T21:53:59.286Z,96963.63
2023-01-25T21:56:26.181Z,96962.41
2023-01-25T21:58:52.921Z,96960.63
2023-01-25T22:01:20.887Z,96965.13
2023-01-25T22:03:51.021Z,96955.50
2023-01-25T22:06:20.283Z,96963.13
2023-01-25T22:08:47.834Z,96955.66
2023-01-25T22:11:14.420Z,96956.38
2023-01-25T22:13:41.526Z,96960.63
2023-01-25T22:16:12.081Z,96962.38
2023-01-25T22:18:41.289Z,96954.38
2023-01-25T22:21:15.051Z,96952.38
2023-01-25T22:23:41.756Z,96958.84
2023-01-25T22:26:47.659Z,96949.75
2023-01-25T22:29:16.528Z,96948.84
2023-01-25T22:31:43.979Z,96941.03
2023-01-25T22:34:11.050Z,96936.41
2023-01-25T22:36:38.957Z,96936.56
2023-01-25T22:39:05.504Z,96934.88
2023-01-25T22:41:33.235Z,96930.09
2023-01-25T22:43:59.660Z,96934.88
2023-01-25T22:46:30.132Z,96932.22
2023-01-25T22:49:11.828Z,96930.13
2023-01-25T22:51:39.213Z,96926.81
2023-01-25T22:54:05.711Z,96924.56
2023-01-25T22:56:41.925Z,96920.63
2023-01-25T22:59:11.997Z,96915.56
2023-01-25T23:01:39.330Z,96925.53
2023-01-25T23:04:05.823Z,96924.59
2023-01-25T23:06:34.572Z,96917.41
2023-01-25T23:09:03.400Z,96914.31
2023-01-25T23:11:32.467Z,96907.00
2023-01-25T23:14:18.098Z,96918.03
2023-01-25T23:17:19.987Z,96909.22
2023-01-25T23:19:46.468Z,96907.47
2023-01-25T23:22:12.977Z,96908.09
2023-01-25T23:24:39.624Z,96900.78
2023-01-25T23:27:06.271Z,96900.78
2023-01-25T23:29:33.229Z,96901.91
2023-01-25T23:31:59.816Z,96900.72
2023-01-25T23:34:26.447Z,96898.81
2023-01-25T23:36:52.929Z,96894.25
2023-01-25T23:39:20.083Z,96890.09
2023-01-25T23:41:46.573Z,96885.09
2023-01-25T23:44:15.629Z,96871.72
2023-01-25T23:46:42.726Z,96874.56
2023-01-25T23:49:09.861Z,96867.75
2023-01-25T23:51:38.994Z,96868.16
2023-01-25T23:54:05.521Z,96850.31
2023-01-25T23:56:32.058Z,96845.94
2023-01-25T23:58:58.562Z,96845.22
